Latest Coastal Weather Observations for Robe Airport

IDS60701

Issued at 8:15 pm CST Monday 21 April 2014 (issued every 10 minutes, with the page automatically refreshed every 10 minutes)

About coastal observations | Map of coastal stations | Coastal observations for SA | Marine services | Other Formats
Station Details ID: 026105 Name: ROBE AIRFIELD Lat: -37.18 Lon: 139.81 Height: 3.0 m
Data from the previous 72 hours. | See also: Recent months for locations in South Australia
Date/Time
CST
Temp

°C
Wind Pressure Rain
since 9am
mm
Weather Cloud Vis
km
Sea
Height
m
Swell
Dir
 
Speed
knots
Gust
knots
hPa Trend Height
m
Period
s
Dir
21/08:00pm 17.0 NNE 7 9 1010.4 - 0.6 - - - - - - -
21/07:30pm 17.3 N 6 7 1010.9 - 0.4 - - - - - - -
21/07:00pm 17.5 N 5 6 1010.7 - 0.0 - - - - - - -
21/06:30pm 18.5 NNW 5 7 1010.5 - 0.0 - - - - - - -
21/06:00pm 18.8 NNW 7 9 1010.4 - 0.0 - - - - - - -
21/05:30pm 19.4 WNW 6 8 1010.3 - 0.0 - - - - - - -
21/05:00pm 20.1 NNW 13 18 1009.6 - 0.0 - - - - - - -
21/04:30pm 20.9 NNW 13 19 1009.7 - 0.0 - - - - - - -
21/04:00pm 21.4 NNW 14 20 1009.4 - 0.0 - - - - - - -
21/03:30pm 21.7 N 16 20 1008.7 - 0.0 - - - - - - -
21/03:10pm 21.8 N 16 27 1009.1 - 0.0 - - - - - - -
21/03:00pm 22.2 NNW 18 23 1009.4 - 0.0 - - - - - - -
21/02:30pm 23.2 NNW 19 26 1009.1 - 0.0 - - - - - - -
21/02:00pm 23.4 N 18 25 1008.8 - 0.0 - - - - - - -
21/01:30pm 23.2 N 17 25 1009.4 - 0.0 - - - - - - -
21/01:00pm 22.5 N 18 28 1009.3 - 0.0 - - - - - - -
21/12:30pm 21.9 N 19 27 1009.6 - 0.0 - - - - - - -
21/12:00pm 21.3 N 18 23 1010.5 - 0.0 - - - - - - -
21/11:30am 21.0 N 16 22 1011.4 - 0.0 - - - - - - -
21/11:00am 20.0 N 14 20 1012.1 - 0.0 - - - - - - -
21/10:30am 19.9 N 14 21 1012.8 - 0.0 - - - - - - -
21/10:00am 18.8 N 13 19 1012.7 - 0.0 - - - - - - -
21/09:30am 17.1 N 11 16 1012.9 - 0.0 - - - - - - -
21/09:00am 16.6 N 13 18 1012.5 - 0.0 - - - - - - -
21/08:30am 14.8 N 13 18 1012.8 - 0.0 - - - - - - -
21/08:00am 13.7 NNE 10 14 1013.0 - 0.0 - - - - - - -
21/07:30am 12.8 NNE 10 14 1013.3 - 0.0 - - - - - - -
21/07:00am 12.2 NNE 10 13 1013.4 - 0.0 - - - - - - -
21/06:30am 11.8 NE 7 9 1014.0 - 0.0 - - - - - - -
21/06:00am 12.0 NE 7 9 1014.1 - 0.0 - - - - - - -
21/05:30am 11.9 ENE 6 8 1014.7 - 0.0 - - - - - - -
21/05:00am 11.9 NE 4 6 1015.2 - 0.0 - - - - - - -
21/04:30am 11.7 NE 5 8 1015.1 - 0.0 - - - - - - -
21/04:00am 12.1 NNE 7 10 1014.8 - 0.0 - - - - - - -
21/03:30am 12.1 NE 6 8 1014.8 - 0.0 - - - - - - -
21/03:00am 11.2 ENE 1 4 1015.2 - 0.0 - - - - - - -
21/02:30am 11.7 ENE 2 5 1016.0 - 0.0 - - - - - - -
21/02:00am 10.6 NE 2 4 1015.9 - 0.0 - - - - - - -
21/01:30am 11.6 NE 1 2 1016.4 - 0.0 - - - - - - -
21/01:00am 11.0 CALM 0 0 1016.3 - 0.0 - - - - - - -
21/12:30am 11.3 CALM 0 0 1016.5 - 0.0 - - - - - - -
21/12:00am 10.5 N 2 3 1016.3 - 0.0 - - - - - - -
 
Date/Time
CST
Temp

°C
Wind Pressure Rain
since 9am
mm
Weather Cloud Vis
km
Sea
Height
m
Swell
Dir
 
Speed
knots
Gust
knots
hPa Trend Height
m
Period
s
Dir
20/11:30pm 9.6 CALM 0 0 1016.9 - 0.0 - - - - - - -
20/11:00pm 9.7 CALM 0 0 1017.4 - 0.0 - - - - - - -
20/10:30pm 9.9 CALM 0 0 1017.7 - 0.0 - - - - - - -
20/10:00pm 11.3 CALM 0 0 1017.8 - 0.0 - - - - - - -
20/09:30pm 9.8 CALM 0 0 1018.0 - 0.0 - - - - - - -
20/09:00pm 11.7 CALM 0 0 1017.9 - 0.0 - - - - - - -
20/08:30pm 12.2 CALM 0 0 1017.8 - 0.0 - - - - - - -
20/08:00pm 14.1 W 3 5 1017.7 - 0.0 - - - - - - -
20/07:30pm 14.5 W 3 5 1017.5 - 0.0 - - - - - - -
20/07:00pm 14.9 WSW 4 6 1017.3 - 0.0 - - - - - - -
20/06:30pm 15.4 W 3 6 1017.0 - 0.0 - - - - - - -
20/06:00pm 15.8 W 4 7 1016.9 - 0.0 - - - - - - -
20/05:30pm 16.1 W 7 11 1016.6 - 0.0 - - - - - - -
20/05:00pm 16.7 NW 7 10 1016.5 - 0.0 - - - - - - -
20/04:30pm 16.4 NNW 10 16 1016.3 - 0.0 - - - - - - -
20/04:00pm 17.4 NNW 12 16 1016.1 - 0.0 - - - - - - -
20/03:30pm 17.2 NW 12 17 1016.2 - 0.0 - - - - - - -
20/03:00pm 17.3 NNW 13 17 1016.1 - 0.0 - - - - - - -
20/02:30pm 17.4 NW 13 17 1016.1 - 0.0 - - - - - - -
20/02:00pm 16.2 NW 12 16 1016.2 - 0.0 - - - - - - -
20/01:30pm 16.0 NW 14 23 1016.4 - 0.0 - - - - - - -
20/01:00pm 17.8 NW 13 16 1016.4 - 0.0 - - - - - - -
20/12:30pm 19.3 NNW 14 20 1016.5 - 0.0 - - - - - - -
20/12:00pm 19.4 NNW 13 17 1016.9 - 0.0 - - - - - - -
20/11:30am 19.2 NNW 13 16 1017.2 - 0.0 - - - - - - -
20/11:00am 19.0 NNW 11 17 1017.3 - 0.0 - - - - - - -
20/10:30am 18.4 NNW 13 17 1017.4 - 0.0 - - - - - - -
20/10:00am 18.7 NNW 13 18 1017.6 - 0.0 - - - - - - -
20/09:30am 17.2 NNW 14 19 1017.7 - 0.0 - - - - - - -
20/09:00am 16.5 NNW 12 16 1017.7 - 0.0 - - - - - - -
20/08:30am 16.2 NNW 13 18 1017.6 - 0.0 - - - - - - -
20/08:00am 15.8 NNW 12 16 1017.4 - 0.0 - - - - - - -
20/07:30am 15.7 NNW 11 17 1017.2 - 0.0 - - - - - - -
20/07:00am 15.4 NNW 12 17 1016.9 - 0.0 - - - - - - -
20/06:30am 13.4 N 7 10 1016.8 - 0.0 - - - - - - -
20/06:00am 13.2 N 4 6 1016.6 - 0.0 - - - - - - -
20/05:30am 12.7 N 7 8 1016.4 - 0.0 - - - - - - -
20/05:00am 12.1 N 4 6 1016.4 - 0.0 - - - - - - -
20/04:30am 12.0 N 5 6 1016.3 - 0.0 - - - - - - -
20/04:00am 11.7 N 3 4 1016.2 - 0.0 - - - - - - -
20/03:30am 11.8 NNE 4 6 1016.3 - 0.0 - - - - - - -
20/03:00am 12.0 NNE 5 6 1016.3 - 0.0 - - - - - - -
20/02:30am 11.9 N 5 6 1016.6 - 0.0 - - - - - - -
20/02:00am 11.8 N 3 5 1016.9 - 0.0 - - - - - - -
20/01:30am 12.5 NNE 3 4 1017.2 - 0.0 - - - - - - -
20/01:00am 13.9 NNW 6 9 1017.4 - 0.0 - - - - - - -
20/12:30am 13.2 N 6 7 1017.1 - 0.0 - - - - - - -
20/12:00am 12.2 NE 3 5 1017.1 - 0.0 - - - - - - -
 
Date/Time
CST
Temp

°C
Wind Pressure Rain
since 9am
mm
Weather Cloud Vis
km
Sea
Height
m
Swell
Dir
 
Speed
knots
Gust
knots
hPa Trend Height
m
Period
s
Dir
19/11:30pm 11.7 CALM 0 2 1017.5 - 0.0 - - - - - - -
19/11:00pm 11.6 CALM 0 0 1017.7 - 0.0 - - - - - - -
19/10:30pm 11.2 NNE 2 3 1018.0 - 0.0 - - - - - - -
19/10:00pm 11.4 NE 2 4 1018.4 - 0.0 - - - - - - -
19/09:30pm 11.3 NE 1 3 1018.3 - 0.0 - - - - - - -
19/09:00pm 11.6 N 2 3 1018.6 - 0.0 - - - - - - -
19/08:30pm 11.8 CALM 0 1 1018.7 - 0.0 - - - - - - -
19/08:00pm 11.8 N 1 5 1018.8 - 0.0 - - - - - - -
19/07:30pm 12.3 CALM 0 0 1018.9 - 0.0 - - - - - - -
19/07:00pm 12.1 CALM 0 0 1018.7 - 0.0 - - - - - - -
19/06:30pm 12.4 N 1 2 1018.9 - 0.0 - - - - - - -
19/06:00pm 12.8 N 5 6 1018.9 - 0.0 - - - - - - -
19/05:30pm 12.7 N 3 4 1018.9 - 0.0 - - - - - - -
19/05:00pm 14.4 NNW 6 8 1018.9 - 0.0 - - - - - - -
19/04:30pm 15.2 NW 4 5 1019.1 - 0.0 - - - - - - -
19/04:00pm 15.3 NW 4 5 1019.4 - 0.0 - - - - - - -
19/03:30pm 15.4 NW 6 7 1019.6 - 0.0 - - - - - - -
19/03:00pm 16.0 WNW 5 7 1019.5 - 0.0 - - - - - - -
19/02:30pm 16.9 WNW 5 8 1019.7 - 0.0 - - - - - - -
19/02:00pm 17.0 WSW 4 8 1019.7 - 0.0 - - - - - - -
19/01:30pm 16.7 W 4 7 1020.0 - 0.0 - - - - - - -
19/01:00pm 16.6 SW 6 9 1020.4 - 0.0 - - - - - - -
19/12:30pm 16.7 W 3 7 1020.8 - 0.0 - - - - - - -
19/12:00pm 16.1 W 4 6 1021.4 - 0.0 - - - - - - -
19/11:30am 16.1 SW 5 8 1021.8 - 0.0 - - - - - - -
19/11:00am 16.1 SSE 5 9 1022.1 - 0.0 - - - - - - -
19/10:30am 15.6 S 6 10 1022.4 - 0.0 - - - - - - -
19/10:00am 15.7 W 3 5 1022.5 - 0.0 - - - - - - -
19/09:30am 14.8 NW 5 7 1022.7 - 0.0 - - - - - - -
19/09:00am 14.2 WNW 3 4 1022.8 - 0.0 - - - - - - -
19/08:30am 13.6 N 2 3 1022.7 - 0.0 - - - - - - -
19/08:00am 12.0 NW 2 3 1022.6 - 0.0 - - - - - - -
19/07:30am 11.2 CALM 0 3 1022.4 - 0.0 - - - - - - -
19/07:00am 10.7 E 2 2 1022.2 - 0.0 - - - - - - -
19/06:30am 10.8 CALM 0 4 1022.1 - 0.0 - - - - - - -
19/06:00am 10.8 CALM 0 0 1021.9 - 0.0 - - - - - - -
19/05:30am 10.7 CALM 0 0 1021.8 - 0.0 - - - - - - -
19/05:00am 10.7 CALM 0 0 1021.8 - 0.0 - - - - - - -
19/04:30am 11.2 CALM 0 0 1021.7 - 0.0 - - - - - - -
19/04:00am 10.7 CALM 0 0 1021.6 - 0.0 - - - - - - -
19/03:30am 11.2 CALM 0 2 1021.6 - 0.0 - - - - - - -
19/03:00am 12.9 SSW 2 4 1021.7 - 0.0 - - - - - - -
19/02:30am 13.5 SSW 4 7 1021.8 - 0.0 - - - - - - -
19/02:00am 13.1 S 3 6 1022.1 - 0.0 - - - - - - -
19/01:30am 12.7 S 3 4 1022.4 - 0.0 - - - - - - -
19/01:00am 12.9 S 6 7 1022.3 - 0.0 - - - - - - -
19/12:30am 13.2 S 5 8 1022.4 - 0.0 - - - - - - -
19/12:00am 13.2 S 4 6 1022.5 - 0.0 - - - - - - -
 
Date/Time
CST
Temp

°C
Wind Pressure Rain
since 9am
mm
Weather Cloud Vis
km
Sea
Height
m
Swell
Dir
 
Speed
knots
Gust
knots
hPa Trend Height
m
Period
s
Dir
18/11:30pm 13.6 S 5 7 1022.6 - 0.0 - - - - - - -
18/11:00pm 13.5 S 5 7 1022.8 - 0.0 - - - - - - -
18/10:30pm 13.1 S 3 5 1023.0 - 0.0 - - - - - - -
18/10:00pm 13.5 S 6 7 1023.2 - 0.0 - - - - - - -
18/09:30pm 13.6 S 6 9 1023.1 - 0.0 - - - - - - -
18/09:00pm 12.7 S 3 5 1022.9 - 0.0 - - - - - - -
18/08:30pm 12.3 S 3 5 1023.0 - 0.0 - - - - - - -

Other Formats:

Comma delimited format used in spreadsheet applications
http://www.bom.gov.au/fwo/IDS60701/IDS60701.95816.axf

JavaScript Object Notation format (JSON) in row-major order
http://www.bom.gov.au/fwo/IDS60701/IDS60701.95816.json